Terminal Aerodrome Forecast
Issued by NWS Cleveland, OH

Home | Current Version | Previous Version | Graphics & Text | Print | Product List | Glossary On
Versions: 1 2 3 4 5 6 7 8 9 10 11 12 13 14 15 16 17 18 19 20 21 22
000
FTUS41 KCLE 241700
TAFCAK
TAF
KCAK 241739Z 2418/2518 05005KT P6SM SCT250
     FM250000 08005KT P6SM BKN250
     FM250700 11008KT P6SM BKN040 BKN100
     FM251000 13010KT 3SM -SHRA OVC040
     FM251200 15014KT 3SM -SHRA OVC025
     FM251600 20018G28KT P6SM BKN015 OVC050=

USA.gov is the U.S. government's official web portal to all federal, state and local government web resources and services.